sensor_id;sensor_type;location;lat;lon;timestamp;temperature;humidity
27890;DHT22;15238;49.082;9.102;2023-08-08T00:19:17;14.70;99.90
27890;DHT22;15238;49.082;9.102;2023-08-08T00:21:17;14.70;99.90
27890;DHT22;15238;49.082;9.102;2023-08-08T00:23:18;14.70;99.90
27890;DHT22;15238;49.082;9.102;2023-08-08T00:25:18;14.70;99.90
27890;DHT22;15238;49.082;9.102;2023-08-08T00:27:19;14.70;99.90
27890;DHT22;15238;49.082;9.102;2023-08-08T00:29:19;14.70;99.90
27890;DHT22;15238;49.082;9.102;2023-08-08T00:31:20;14.70;99.90
27890;DHT22;15238;49.082;9.102;2023-08-08T00:33:20;14.70;99.90
27890;DHT22;15238;49.082;9.102;2023-08-08T00:35:21;14.70;99.90
27890;DHT22;15238;49.082;9.102;2023-08-08T00:37:21;14.70;99.90
27890;DHT22;15238;49.082;9.102;2023-08-08T00:39:22;14.70;99.90
27890;DHT22;15238;49.082;9.102;2023-08-08T00:41:22;14.70;99.90
27890;DHT22;15238;49.082;9.102;2023-08-08T00:43:23;14.70;99.90
27890;DHT22;15238;49.082;9.102;2023-08-08T00:45:23;14.70;99.90
27890;DHT22;15238;49.082;9.102;2023-08-08T00:47:24;14.70;99.90
27890;DHT22;15238;49.082;9.102;2023-08-08T00:49:25;14.60;99.90
27890;DHT22;15238;49.082;9.102;2023-08-08T00:51:25;14.50;99.90
27890;DHT22;15238;49.082;9.102;2023-08-08T00:53:26;14.40;99.90
27890;DHT22;15238;49.082;9.102;2023-08-08T00:55:28;14.50;99.90
27890;DHT22;15238;49.082;9.102;2023-08-08T00:57:29;14.40;99.90
27890;DHT22;15238;49.082;9.102;2023-08-08T00:59:29;14.40;99.90
27890;DHT22;15238;49.082;9.102;2023-08-08T01:01:30;14.30;99.90
27890;DHT22;15238;49.082;9.102;2023-08-08T01:03:30;14.30;99.90
27890;DHT22;15238;49.082;9.102;2023-08-08T01:05:38;14.20;99.90
27890;DHT22;15238;49.082;9.102;2023-08-08T01:07:54;14.20;99.90
27890;DHT22;15238;49.082;9.102;2023-08-08T01:10:12;14.10;99.90
27890;DHT22;15238;49.082;9.102;2023-08-08T01:12:14;14.00;99.90
27890;DHT22;15238;49.082;9.102;2023-08-08T01:14:16;13.90;99.90
27890;DHT22;15238;49.082;9.102;2023-08-08T01:16:17;13.90;99.90
27890;DHT22;15238;49.082;9.102;2023-08-08T01:18:19;13.90;99.90
27890;DHT22;15238;49.082;9.102;2023-08-08T01:20:21;13.90;99.90
27890;DHT22;15238;49.082;9.102;2023-08-08T01:22:32;13.90;99.90
27890;DHT22;15238;49.082;9.102;2023-08-08T01:24:36;14.00;99.90
27890;DHT22;15238;49.082;9.102;2023-08-08T01:26:37;14.00;99.90
27890;DHT22;15238;49.082;9.102;2023-08-08T01:28:38;14.00;99.90
27890;DHT22;15238;49.082;9.102;2023-08-08T01:30:39;14.00;99.90
27890;DHT22;15238;49.082;9.102;2023-08-08T01:32:40;14.10;99.90
27890;DHT22;15238;49.082;9.102;2023-08-08T01:34:40;14.10;99.90
27890;DHT22;15238;49.082;9.102;2023-08-08T01:36:56;14.10;99.90
27890;DHT22;15238;49.082;9.102;2023-08-08T01:39:00;14.10;99.90
27890;DHT22;15238;49.082;9.102;2023-08-08T01:41:06;14.20;99.90
27890;DHT22;15238;49.082;9.102;2023-08-08T01:43:08;14.20;99.90
27890;DHT22;15238;49.082;9.102;2023-08-08T01:45:09;14.20;99.90
27890;DHT22;15238;49.082;9.102;2023-08-08T01:47:09;14.20;99.90
27890;DHT22;15238;49.082;9.102;2023-08-08T01:49:10;14.20;99.90
27890;DHT22;15238;49.082;9.102;2023-08-08T01:51:10;14.20;99.90
27890;DHT22;15238;49.082;9.102;2023-08-08T01:53:11;14.30;99.90
27890;DHT22;15238;49.082;9.102;2023-08-08T01:55:12;14.30;99.90
27890;DHT22;15238;49.082;9.102;2023-08-08T01:57:12;14.30;99.90
27890;DHT22;15238;49.082;9.102;2023-08-08T01:59:13;14.30;99.90
27890;DHT22;15238;49.082;9.102;2023-08-08T02:01:13;14.30;99.90
27890;DHT22;15238;49.082;9.102;2023-08-08T02:03:14;14.30;99.90
27890;DHT22;15238;49.082;9.102;2023-08-08T02:05:14;14.20;99.90
27890;DHT22;15238;49.082;9.102;2023-08-08T02:07:15;14.20;99.90
27890;DHT22;15238;49.082;9.102;2023-08-08T02:09:16;14.20;99.90
27890;DHT22;15238;49.082;9.102;2023-08-08T02:11:17;14.20;99.90
27890;DHT22;15238;49.082;9.102;2023-08-08T02:13:17;14.20;99.90
27890;DHT22;15238;49.082;9.102;2023-08-08T02:15:18;14.20;99.90
27890;DHT22;15238;49.082;9.102;2023-08-08T02:17:18;14.10;99.90
27890;DHT22;15238;49.082;9.102;2023-08-08T02:19:18;14.10;99.90
27890;DHT22;15238;49.082;9.102;2023-08-08T02:21:19;14.10;99.90
27890;DHT22;15238;49.082;9.102;2023-08-08T02:23:19;14.00;99.90
27890;DHT22;15238;49.082;9.102;2023-08-08T02:25:20;14.00;99.90
27890;DHT22;15238;49.082;9.102;2023-08-08T02:27:20;14.00;99.90
27890;DHT22;15238;49.082;9.102;2023-08-08T02:29:21;13.90;99.90
27890;DHT22;15238;49.082;9.102;2023-08-08T02:31:21;13.90;99.90
27890;DHT22;15238;49.082;9.102;2023-08-08T02:33:22;13.90;99.90
27890;DHT22;15238;49.082;9.102;2023-08-08T02:35:22;13.80;99.90
27890;DHT22;15238;49.082;9.102;2023-08-08T02:37:23;13.80;99.90
27890;DHT22;15238;49.082;9.102;2023-08-08T02:39:23;13.70;99.90
27890;DHT22;15238;49.082;9.102;2023-08-08T02:41:24;13.60;99.90
27890;DHT22;15238;49.082;9.102;2023-08-08T02:43:24;13.60;99.90
27890;DHT22;15238;49.082;9.102;2023-08-08T02:45:25;13.60;99.90
27890;DHT22;15238;49.082;9.102;2023-08-08T02:47:25;13.60;99.90
27890;DHT22;15238;49.082;9.102;2023-08-08T02:49:26;13.50;99.90
27890;DHT22;15238;49.082;9.102;2023-08-08T02:51:26;13.40;99.90
27890;DHT22;15238;49.082;9.102;2023-08-08T02:53:27;13.40;99.90
27890;DHT22;15238;49.082;9.102;2023-08-08T02:55:27;13.30;99.90
27890;DHT22;15238;49.082;9.102;2023-08-08T02:57:28;13.30;99.90
27890;DHT22;15238;49.082;9.102;2023-08-08T02:59:28;13.30;99.90
27890;DHT22;15238;49.082;9.102;2023-08-08T03:01:29;13.20;99.90
27890;DHT22;15238;49.082;9.102;2023-08-08T03:03:30;13.20;99.90
27890;DHT22;15238;49.082;9.102;2023-08-08T03:05:30;13.20;99.90
27890;DHT22;15238;49.082;9.102;2023-08-08T03:07:31;13.20;99.90
27890;DHT22;15238;49.082;9.102;2023-08-08T03:09:31;13.20;99.90
27890;DHT22;15238;49.082;9.102;2023-08-08T03:11:32;13.30;99.90
27890;DHT22;15238;49.082;9.102;2023-08-08T03:13:32;13.30;99.90
27890;DHT22;15238;49.082;9.102;2023-08-08T03:15:33;13.30;99.90
27890;DHT22;15238;49.082;9.102;2023-08-08T03:17:33;13.40;99.90
27890;DHT22;15238;49.082;9.102;2023-08-08T03:19:35;13.40;99.90
27890;DHT22;15238;49.082;9.102;2023-08-08T03:21:35;13.40;99.90
27890;DHT22;15238;49.082;9.102;2023-08-08T03:23:36;13.40;99.90
27890;DHT22;15238;49.082;9.102;2023-08-08T03:25:36;13.40;99.90
27890;DHT22;15238;49.082;9.102;2023-08-08T03:27:37;13.40;99.90
27890;DHT22;15238;49.082;9.102;2023-08-08T03:29:37;13.40;99.90
27890;DHT22;15238;49.082;9.102;2023-08-08T03:31:38;13.50;99.90
27890;DHT22;15238;49.082;9.102;2023-08-08T03:33:38;13.50;99.90
27890;DHT22;15238;49.082;9.102;2023-08-08T03:35:39;13.50;99.90
27890;DHT22;15238;49.082;9.102;2023-08-08T03:37:39;13.50;99.90
27890;DHT22;15238;49.082;9.102;2023-08-08T03:39:40;13.50;99.90
27890;DHT22;15238;49.082;9.102;2023-08-08T03:41:40;13.50;99.90
27890;DHT22;15238;49.082;9.102;2023-08-08T03:43:41;13.50;99.90
27890;DHT22;15238;49.082;9.102;2023-08-08T03:45:41;13.50;99.90
27890;DHT22;15238;49.082;9.102;2023-08-08T03:47:42;13.50;99.90
27890;DHT22;15238;49.082;9.102;2023-08-08T03:49:42;13.50;99.90
27890;DHT22;15238;49.082;9.102;2023-08-08T03:51:43;13.50;99.90
27890;DHT22;15238;49.082;9.102;2023-08-08T03:53:43;13.50;99.90
27890;DHT22;15238;49.082;9.102;2023-08-08T03:55:44;13.50;99.90
27890;DHT22;15238;49.082;9.102;2023-08-08T03:57:44;13.60;99.90
27890;DHT22;15238;49.082;9.102;2023-08-08T03:59:45;13.60;99.90
27890;DHT22;15238;49.082;9.102;2023-08-08T04:01:45;13.60;99.90
27890;DHT22;15238;49.082;9.102;2023-08-08T04:03:46;13.60;99.90
27890;DHT22;15238;49.082;9.102;2023-08-08T04:05:47;13.70;99.90
27890;DHT22;15238;49.082;9.102;2023-08-08T04:07:47;13.70;99.90
27890;DHT22;15238;49.082;9.102;2023-08-08T04:09:48;13.70;99.90
27890;DHT22;15238;49.082;9.102;2023-08-08T04:11:48;13.70;99.90
27890;DHT22;15238;49.082;9.102;2023-08-08T04:13:49;13.70;99.90
27890;DHT22;15238;49.082;9.102;2023-08-08T04:15:49;13.70;99.90
27890;DHT22;15238;49.082;9.102;2023-08-08T04:17:52;13.70;99.90
27890;DHT22;15238;49.082;9.102;2023-08-08T04:19:52;13.60;99.90
27890;DHT22;15238;49.082;9.102;2023-08-08T04:21:53;13.70;99.90
27890;DHT22;15238;49.082;9.102;2023-08-08T04:23:53;13.60;99.90
27890;DHT22;15238;49.082;9.102;2023-08-08T04:25:54;13.50;99.90
27890;DHT22;15238;49.082;9.102;2023-08-08T04:27:54;13.60;99.90
27890;DHT22;15238;49.082;9.102;2023-08-08T04:29:55;13.60;99.90
27890;DHT22;15238;49.082;9.102;2023-08-08T04:31:55;13.50;99.90
27890;DHT22;15238;49.082;9.102;2023-08-08T04:33:56;13.60;99.90
27890;DHT22;15238;49.082;9.102;2023-08-08T04:36:00;13.60;99.90
27890;DHT22;15238;49.082;9.102;2023-08-08T04:38:00;13.50;99.90
27890;DHT22;15238;49.082;9.102;2023-08-08T04:40:01;13.50;99.90
27890;DHT22;15238;49.082;9.102;2023-08-08T04:42:02;13.50;99.90
27890;DHT22;15238;49.082;9.102;2023-08-08T04:44:02;13.50;99.90
27890;DHT22;15238;49.082;9.102;2023-08-08T04:46:03;13.50;99.90
27890;DHT22;15238;49.082;9.102;2023-08-08T04:48:03;13.50;99.90
27890;DHT22;15238;49.082;9.102;2023-08-08T04:50:04;13.50;99.90
27890;DHT22;15238;49.082;9.102;2023-08-08T04:52:05;13.60;99.90
27890;DHT22;15238;49.082;9.102;2023-08-08T04:54:06;13.60;99.90
27890;DHT22;15238;49.082;9.102;2023-08-08T04:56:06;13.50;99.90
27890;DHT22;15238;49.082;9.102;2023-08-08T04:58:07;13.60;99.90
27890;DHT22;15238;49.082;9.102;2023-08-08T05:00:08;13.70;99.90
27890;DHT22;15238;49.082;9.102;2023-08-08T05:02:09;13.80;99.90
27890;DHT22;15238;49.082;9.102;2023-08-08T05:04:09;13.80;99.90
27890;DHT22;15238;49.082;9.102;2023-08-08T05:06:10;13.90;99.90
27890;DHT22;15238;49.082;9.102;2023-08-08T05:08:14;13.80;99.90
27890;DHT22;15238;49.082;9.102;2023-08-08T05:10:14;13.90;99.90
27890;DHT22;15238;49.082;9.102;2023-08-08T05:12:15;14.00;99.90
27890;DHT22;15238;49.082;9.102;2023-08-08T05:14:15;14.10;99.90
27890;DHT22;15238;49.082;9.102;2023-08-08T05:16:16;14.10;99.90
27890;DHT22;15238;49.082;9.102;2023-08-08T05:18:16;14.20;99.90
27890;DHT22;15238;49.082;9.102;2023-08-08T05:20:17;14.30;99.90
27890;DHT22;15238;49.082;9.102;2023-08-08T05:22:17;14.40;99.90
27890;DHT22;15238;49.082;9.102;2023-08-08T05:24:18;14.60;99.90
27890;DHT22;15238;49.082;9.102;2023-08-08T05:26:18;14.80;99.90
27890;DHT22;15238;49.082;9.102;2023-08-08T05:28:19;15.00;99.90
27890;DHT22;15238;49.082;9.102;2023-08-08T05:30:21;15.10;99.90
27890;DHT22;15238;49.082;9.102;2023-08-08T05:32:22;15.20;99.90
27890;DHT22;15238;49.082;9.102;2023-08-08T05:34:24;15.40;99.90
27890;DHT22;15238;49.082;9.102;2023-08-08T05:36:25;15.40;99.90
27890;DHT22;15238;49.082;9.102;2023-08-08T05:38:25;15.50;99.90
27890;DHT22;15238;49.082;9.102;2023-08-08T05:40:26;15.70;99.90
27890;DHT22;15238;49.082;9.102;2023-08-08T05:42:26;15.80;99.90
27890;DHT22;15238;49.082;9.102;2023-08-08T05:44:27;15.90;99.90
27890;DHT22;15238;49.082;9.102;2023-08-08T05:46:27;16.00;99.90
27890;DHT22;15238;49.082;9.102;2023-08-08T05:48:28;16.10;99.90
27890;DHT22;15238;49.082;9.102;2023-08-08T05:50:28;16.30;99.90
27890;DHT22;15238;49.082;9.102;2023-08-08T05:52:29;16.40;99.90
27890;DHT22;15238;49.082;9.102;2023-08-08T05:54:29;16.40;99.90
27890;DHT22;15238;49.082;9.102;2023-08-08T05:56:37;16.40;99.90
27890;DHT22;15238;49.082;9.102;2023-08-08T05:58:37;16.60;99.90
27890;DHT22;15238;49.082;9.102;2023-08-08T06:00:40;16.70;99.90
27890;DHT22;15238;49.082;9.102;2023-08-08T06:02:41;16.70;99.90
27890;DHT22;15238;49.082;9.102;2023-08-08T06:04:41;16.70;99.90
27890;DHT22;15238;49.082;9.102;2023-08-08T06:06:42;16.70;99.90
27890;DHT22;15238;49.082;9.102;2023-08-08T06:08:42;16.90;99.90
27890;DHT22;15238;49.082;9.102;2023-08-08T06:10:43;16.90;99.90
27890;DHT22;15238;49.082;9.102;2023-08-08T06:12:43;16.90;99.90
27890;DHT22;15238;49.082;9.102;2023-08-08T06:14:44;17.00;99.90
27890;DHT22;15238;49.082;9.102;2023-08-08T06:16:44;17.00;99.90
27890;DHT22;15238;49.082;9.102;2023-08-08T06:18:46;17.20;99.90
27890;DHT22;15238;49.082;9.102;2023-08-08T06:20:47;17.20;99.90
27890;DHT22;15238;49.082;9.102;2023-08-08T06:22:49;17.50;99.90
27890;DHT22;15238;49.082;9.102;2023-08-08T06:24:49;17.50;99.90
27890;DHT22;15238;49.082;9.102;2023-08-08T06:26:50;17.40;99.90
27890;DHT22;15238;49.082;9.102;2023-08-08T06:28:50;17.20;99.90
27890;DHT22;15238;49.082;9.102;2023-08-08T06:30:51;17.40;99.90
27890;DHT22;15238;49.082;9.102;2023-08-08T06:32:52;17.40;99.90
27890;DHT22;15238;49.082;9.102;2023-08-08T06:34:52;17.50;99.90
27890;DHT22;15238;49.082;9.102;2023-08-08T06:36:54;17.60;99.90
27890;DHT22;15238;49.082;9.102;2023-08-08T06:38:54;17.80;99.90
27890;DHT22;15238;49.082;9.102;2023-08-08T06:40:55;18.00;99.90
27890;DHT22;15238;49.082;9.102;2023-08-08T06:42:56;18.00;99.90
27890;DHT22;15238;49.082;9.102;2023-08-08T06:44:57;18.00;99.90
27890;DHT22;15238;49.082;9.102;2023-08-08T06:46:57;18.00;99.90
27890;DHT22;15238;49.082;9.102;2023-08-08T06:48:58;18.10;99.90
27890;DHT22;15238;49.082;9.102;2023-08-08T06:50:59;18.10;99.90
27890;DHT22;15238;49.082;9.102;2023-08-08T06:53:00;18.30;99.90
27890;DHT22;15238;49.082;9.102;2023-08-08T06:55:01;18.20;99.90
27890;DHT22;15238;49.082;9.102;2023-08-08T06:57:01;18.30;99.90
27890;DHT22;15238;49.082;9.102;2023-08-08T06:59:02;18.50;99.90
27890;DHT22;15238;49.082;9.102;2023-08-08T07:01:03;18.30;99.90
27890;DHT22;15238;49.082;9.102;2023-08-08T07:03:03;18.20;99.90
27890;DHT22;15238;49.082;9.102;2023-08-08T07:05:04;18.10;99.90
27890;DHT22;15238;49.082;9.102;2023-08-08T07:07:04;18.10;99.90
27890;DHT22;15238;49.082;9.102;2023-08-08T07:09:05;18.10;99.90
27890;DHT22;15238;49.082;9.102;2023-08-08T07:11:06;18.10;99.90
27890;DHT22;15238;49.082;9.102;2023-08-08T07:13:07;18.20;99.90
27890;DHT22;15238;49.082;9.102;2023-08-08T07:15:08;18.40;99.90
27890;DHT22;15238;49.082;9.102;2023-08-08T07:17:08;18.70;99.90
27890;DHT22;15238;49.082;9.102;2023-08-08T07:19:09;18.70;99.90
27890;DHT22;15238;49.082;9.102;2023-08-08T07:21:10;18.70;99.90
27890;DHT22;15238;49.082;9.102;2023-08-08T07:23:11;18.90;99.90
27890;DHT22;15238;49.082;9.102;2023-08-08T07:25:11;19.00;99.90
27890;DHT22;15238;49.082;9.102;2023-08-08T07:27:12;19.00;99.90
27890;DHT22;15238;49.082;9.102;2023-08-08T07:29:12;19.00;99.90
27890;DHT22;15238;49.082;9.102;2023-08-08T07:31:13;18.90;99.90
27890;DHT22;15238;49.082;9.102;2023-08-08T07:33:13;19.00;99.90
27890;DHT22;15238;49.082;9.102;2023-08-08T07:35:14;18.90;99.90
27890;DHT22;15238;49.082;9.102;2023-08-08T07:37:15;18.90;99.90
27890;DHT22;15238;49.082;9.102;2023-08-08T07:39:16;18.90;99.90
27890;DHT22;15238;49.082;9.102;2023-08-08T07:41:16;18.90;99.90
27890;DHT22;15238;49.082;9.102;2023-08-08T07:43:18;18.90;99.90
27890;DHT22;15238;49.082;9.102;2023-08-08T07:45:20;19.00;99.90
27890;DHT22;15238;49.082;9.102;2023-08-08T07:47:21;19.20;99.90
27890;DHT22;15238;49.082;9.102;2023-08-08T07:49:22;19.30;99.90
27890;DHT22;15238;49.082;9.102;2023-08-08T07:51:22;19.40;99.90
27890;DHT22;15238;49.082;9.102;2023-08-08T07:53:22;19.60;99.90
27890;DHT22;15238;49.082;9.102;2023-08-08T07:55:23;19.70;99.90
27890;DHT22;15238;49.082;9.102;2023-08-08T07:57:26;19.90;99.90
27890;DHT22;15238;49.082;9.102;2023-08-08T07:59:26;20.00;99.90
27890;DHT22;15238;49.082;9.102;2023-08-08T08:01:28;19.70;99.90
27890;DHT22;15238;49.082;9.102;2023-08-08T08:03:28;19.80;99.90
27890;DHT22;15238;49.082;9.102;2023-08-08T08:05:29;19.90;99.90
27890;DHT22;15238;49.082;9.102;2023-08-08T08:07:30;19.90;99.90
27890;DHT22;15238;49.082;9.102;2023-08-08T08:09:30;19.80;99.90
27890;DHT22;15238;49.082;9.102;2023-08-08T08:11:31;19.70;99.90
27890;DHT22;15238;49.082;9.102;2023-08-08T08:13:31;19.50;99.90
27890;DHT22;15238;49.082;9.102;2023-08-08T08:15:32;19.10;99.90
27890;DHT22;15238;49.082;9.102;2023-08-08T08:17:33;19.00;99.90
27890;DHT22;15238;49.082;9.102;2023-08-08T08:19:33;19.00;99.90
27890;DHT22;15238;49.082;9.102;2023-08-08T08:21:33;18.90;99.90
27890;DHT22;15238;49.082;9.102;2023-08-08T08:23:34;18.90;99.90
27890;DHT22;15238;49.082;9.102;2023-08-08T08:25:35;19.00;99.90
27890;DHT22;15238;49.082;9.102;2023-08-08T08:27:36;19.00;99.90
27890;DHT22;15238;49.082;9.102;2023-08-08T08:29:37;19.00;99.90
27890;DHT22;15238;49.082;9.102;2023-08-08T08:31:37;19.10;99.90
27890;DHT22;15238;49.082;9.102;2023-08-08T08:33:38;19.00;99.90
27890;DHT22;15238;49.082;9.102;2023-08-08T08:35:39;18.90;99.90
27890;DHT22;15238;49.082;9.102;2023-08-08T08:37:39;18.90;99.90
27890;DHT22;15238;49.082;9.102;2023-08-08T08:39:40;19.00;99.90
27890;DHT22;15238;49.082;9.102;2023-08-08T08:41:40;19.20;99.90
27890;DHT22;15238;49.082;9.102;2023-08-08T08:43:41;19.30;99.90
27890;DHT22;15238;49.082;9.102;2023-08-08T08:45:43;19.30;99.90
27890;DHT22;15238;49.082;9.102;2023-08-08T08:47:44;19.30;99.90
27890;DHT22;15238;49.082;9.102;2023-08-08T08:49:46;19.30;99.90
27890;DHT22;15238;49.082;9.102;2023-08-08T08:51:47;19.40;99.90
27890;DHT22;15238;49.082;9.102;2023-08-08T08:53:48;19.30;99.90
27890;DHT22;15238;49.082;9.102;2023-08-08T08:55:48;19.40;99.90
27890;DHT22;15238;49.082;9.102;2023-08-08T08:57:50;19.50;99.90
27890;DHT22;15238;49.082;9.102;2023-08-08T08:59:52;19.40;99.90
27890;DHT22;15238;49.082;9.102;2023-08-08T09:01:53;19.20;99.90
27890;DHT22;15238;49.082;9.102;2023-08-08T09:03:53;19.00;99.90
27890;DHT22;15238;49.082;9.102;2023-08-08T09:05:55;19.30;99.90
27890;DHT22;15238;49.082;9.102;2023-08-08T09:07:56;19.40;99.90
27890;DHT22;15238;49.082;9.102;2023-08-08T09:09:57;19.50;99.90
27890;DHT22;15238;49.082;9.102;2023-08-08T09:11:57;19.50;99.90
27890;DHT22;15238;49.082;9.102;2023-08-08T09:13:58;19.50;99.90
27890;DHT22;15238;49.082;9.102;2023-08-08T09:16:00;19.40;99.90
27890;DHT22;15238;49.082;9.102;2023-08-08T09:18:00;19.30;99.90
27890;DHT22;15238;49.082;9.102;2023-08-08T09:20:01;19.50;99.90
27890;DHT22;15238;49.082;9.102;2023-08-08T09:22:02;19.60;99.90
27890;DHT22;15238;49.082;9.102;2023-08-08T09:24:03;19.70;99.90
27890;DHT22;15238;49.082;9.102;2023-08-08T09:26:03;19.80;99.90
27890;DHT22;15238;49.082;9.102;2023-08-08T09:28:04;19.60;99.90
27890;DHT22;15238;49.082;9.102;2023-08-08T09:30:05;19.50;99.90
27890;DHT22;15238;49.082;9.102;2023-08-08T09:32:07;19.60;99.90
27890;DHT22;15238;49.082;9.102;2023-08-08T09:34:07;19.80;99.90
27890;DHT22;15238;49.082;9.102;2023-08-08T09:36:14;20.20;99.90
27890;DHT22;15238;49.082;9.102;2023-08-08T09:38:16;20.30;99.90
27890;DHT22;15238;49.082;9.102;2023-08-08T09:40:16;20.30;99.90
27890;DHT22;15238;49.082;9.102;2023-08-08T09:42:17;20.30;99.90
27890;DHT22;15238;49.082;9.102;2023-08-08T09:44:18;20.50;99.90
27890;DHT22;15238;49.082;9.102;2023-08-08T09:46:23;20.30;99.90
27890;DHT22;15238;49.082;9.102;2023-08-08T09:48:29;20.20;99.90
27890;DHT22;15238;49.082;9.102;2023-08-08T09:50:33;20.40;99.80
27890;DHT22;15238;49.082;9.102;2023-08-08T09:52:35;20.50;99.80
27890;DHT22;15238;49.082;9.102;2023-08-08T09:54:36;20.40;99.90
27890;DHT22;15238;49.082;9.102;2023-08-08T09:56:39;20.30;98.20
27890;DHT22;15238;49.082;9.102;2023-08-08T09:58:40;20.30;99.00
27890;DHT22;15238;49.082;9.102;2023-08-08T10:00:42;20.50;98.10
27890;DHT22;15238;49.082;9.102;2023-08-08T10:02:47;20.80;97.80
27890;DHT22;15238;49.082;9.102;2023-08-08T10:04:48;20.90;97.70
27890;DHT22;15238;49.082;9.102;2023-08-08T10:06:48;21.00;96.20
27890;DHT22;15238;49.082;9.102;2023-08-08T10:08:50;21.10;96.30
27890;DHT22;15238;49.082;9.102;2023-08-08T10:10:51;21.00;97.60
27890;DHT22;15238;49.082;9.102;2023-08-08T10:12:52;21.10;97.20
27890;DHT22;15238;49.082;9.102;2023-08-08T10:14:52;21.20;97.00
27890;DHT22;15238;49.082;9.102;2023-08-08T10:16:53;21.10;96.50
27890;DHT22;15238;49.082;9.102;2023-08-08T10:19:01;21.00;96.70
27890;DHT22;15238;49.082;9.102;2023-08-08T10:21:04;20.90;97.00
27890;DHT22;15238;49.082;9.102;2023-08-08T10:23:05;20.90;97.30
27890;DHT22;15238;49.082;9.102;2023-08-08T10:25:07;21.00;97.10
27890;DHT22;15238;49.082;9.102;2023-08-08T10:27:08;21.00;97.10
27890;DHT22;15238;49.082;9.102;2023-08-08T10:29:18;20.80;97.30
27890;DHT22;15238;49.082;9.102;2023-08-08T10:31:22;21.10;97.80
27890;DHT22;15238;49.082;9.102;2023-08-08T10:33:25;21.20;96.80
27890;DHT22;15238;49.082;9.102;2023-08-08T10:35:36;21.20;96.80
27890;DHT22;15238;49.082;9.102;2023-08-08T10:37:38;20.90;96.70
27890;DHT22;15238;49.082;9.102;2023-08-08T10:39:59;20.70;96.20
27890;DHT22;15238;49.082;9.102;2023-08-08T10:42:03;20.50;96.80
27890;DHT22;15238;49.082;9.102;2023-08-08T10:44:09;20.60;97.10
27890;DHT22;15238;49.082;9.102;2023-08-08T10:46:11;20.70;97.80
27890;DHT22;15238;49.082;9.102;2023-08-08T10:48:11;20.70;97.40
27890;DHT22;15238;49.082;9.102;2023-08-08T10:50:14;20.90;96.70
27890;DHT22;15238;49.082;9.102;2023-08-08T10:52:14;20.80;96.10
27890;DHT22;15238;49.082;9.102;2023-08-08T10:54:19;21.00;96.50
27890;DHT22;15238;49.082;9.102;2023-08-08T10:56:22;21.20;96.50
27890;DHT22;15238;49.082;9.102;2023-08-08T10:58:23;21.20;96.30
27890;DHT22;15238;49.082;9.102;2023-08-08T11:00:36;21.50;96.90
27890;DHT22;15238;49.082;9.102;2023-08-08T11:02:40;21.60;96.60
27890;DHT22;15238;49.082;9.102;2023-08-08T11:04:42;21.70;95.40
27890;DHT22;15238;49.082;9.102;2023-08-08T11:06:42;21.80;95.40
27890;DHT22;15238;49.082;9.102;2023-08-08T11:08:43;21.90;95.60
27890;DHT22;15238;49.082;9.102;2023-08-08T11:10:43;21.80;94.90
27890;DHT22;15238;49.082;9.102;2023-08-08T11:12:55;21.80;94.70
27890;DHT22;15238;49.082;9.102;2023-08-08T11:14:56;21.90;95.10
27890;DHT22;15238;49.082;9.102;2023-08-08T11:16:57;22.10;96.00
27890;DHT22;15238;49.082;9.102;2023-08-08T11:18:58;22.00;95.10
27890;DHT22;15238;49.082;9.102;2023-08-08T11:20:58;22.10;95.40
27890;DHT22;15238;49.082;9.102;2023-08-08T11:23:00;22.00;94.70
27890;DHT22;15238;49.082;9.102;2023-08-08T11:25:00;22.00;94.80
27890;DHT22;15238;49.082;9.102;2023-08-08T11:27:04;21.90;94.80
27890;DHT22;15238;49.082;9.102;2023-08-08T11:29:05;22.00;94.30
27890;DHT22;15238;49.082;9.102;2023-08-08T11:31:06;21.90;94.40
27890;DHT22;15238;49.082;9.102;2023-08-08T11:33:08;21.90;94.30
27890;DHT22;15238;49.082;9.102;2023-08-08T11:35:09;21.90;94.00
27890;DHT22;15238;49.082;9.102;2023-08-08T11:37:10;21.90;93.70
27890;DHT22;15238;49.082;9.102;2023-08-08T11:39:11;21.50;93.90
27890;DHT22;15238;49.082;9.102;2023-08-08T11:41:17;21.50;94.10
27890;DHT22;15238;49.082;9.102;2023-08-08T11:43:18;21.70;94.10
27890;DHT22;15238;49.082;9.102;2023-08-08T11:45:19;21.70;94.70
27890;DHT22;15238;49.082;9.102;2023-08-08T11:47:25;21.80;93.90
27890;DHT22;15238;49.082;9.102;2023-08-08T11:49:25;22.00;93.70
27890;DHT22;15238;49.082;9.102;2023-08-08T11:51:28;22.00;93.40
27890;DHT22;15238;49.082;9.102;2023-08-08T11:53:28;22.30;94.60
27890;DHT22;15238;49.082;9.102;2023-08-08T11:55:29;22.60;92.70
27890;DHT22;15238;49.082;9.102;2023-08-08T11:57:33;22.40;92.10
27890;DHT22;15238;49.082;9.102;2023-08-08T11:59:35;22.50;92.60
27890;DHT22;15238;49.082;9.102;2023-08-08T12:01:36;22.50;91.80
27890;DHT22;15238;49.082;9.102;2023-08-08T12:03:39;22.50;92.00
27890;DHT22;15238;49.082;9.102;2023-08-08T12:05:40;22.20;90.90
27890;DHT22;15238;49.082;9.102;2023-08-08T12:07:40;22.30;92.50
27890;DHT22;15238;49.082;9.102;2023-08-08T12:09:48;22.50;91.60
27890;DHT22;15238;49.082;9.102;2023-08-08T12:11:53;22.20;89.40
27890;DHT22;15238;49.082;9.102;2023-08-08T12:14:00;22.10;90.10
27890;DHT22;15238;49.082;9.102;2023-08-08T12:16:00;22.10;90.20
27890;DHT22;15238;49.082;9.102;2023-08-08T12:18:02;21.80;88.40
27890;DHT22;15238;49.082;9.102;2023-08-08T12:20:07;22.30;90.50
27890;DHT22;15238;49.082;9.102;2023-08-08T12:22:08;22.30;87.30
27890;DHT22;15238;49.082;9.102;2023-08-08T12:24:08;22.40;86.00
27890;DHT22;15238;49.082;9.102;2023-08-08T12:26:09;22.40;86.50
27890;DHT22;15238;49.082;9.102;2023-08-08T12:28:09;22.60;87.30
27890;DHT22;15238;49.082;9.102;2023-08-08T12:30:10;22.60;86.30
27890;DHT22;15238;49.082;9.102;2023-08-08T12:32:11;22.90;86.10
27890;DHT22;15238;49.082;9.102;2023-08-08T12:34:11;23.10;83.20
27890;DHT22;15238;49.082;9.102;2023-08-08T12:36:12;23.30;84.70
27890;DHT22;15238;49.082;9.102;2023-08-08T12:38:13;23.60;83.90
27890;DHT22;15238;49.082;9.102;2023-08-08T12:40:14;23.60;84.30
27890;DHT22;15238;49.082;9.102;2023-08-08T12:42:15;23.50;85.30
27890;DHT22;15238;49.082;9.102;2023-08-08T12:44:16;23.50;83.70
27890;DHT22;15238;49.082;9.102;2023-08-08T12:46:17;23.50;84.70
27890;DHT22;15238;49.082;9.102;2023-08-08T12:48:17;23.20;84.30
27890;DHT22;15238;49.082;9.102;2023-08-08T12:50:18;23.00;76.70
27890;DHT22;15238;49.082;9.102;2023-08-08T12:52:18;22.70;74.80
27890;DHT22;15238;49.082;9.102;2023-08-08T12:54:19;22.50;78.10
27890;DHT22;15238;49.082;9.102;2023-08-08T12:56:19;22.60;81.20
27890;DHT22;15238;49.082;9.102;2023-08-08T12:58:20;22.90;81.90
27890;DHT22;15238;49.082;9.102;2023-08-08T13:00:20;22.80;78.90
27890;DHT22;15238;49.082;9.102;2023-08-08T13:02:21;22.80;81.30
27890;DHT22;15238;49.082;9.102;2023-08-08T13:04:22;22.80;82.00